Overview Statistics Trail Chart Weather Telemetry Raw packets
 

This is the latest recevied weather packets stored in our database for station/object EA4HRG-10. If no packets are shown the sender has not sent any weather packets the latest 10 day(s).

<< 20 21 22 23 24 25 26 >>
Time Temp. Humidity Pressure Rain* Wind** Luminosity Snow
1788145838 12.22° C 56% 1020.9 hPa - - - -
1788144938 12.22° C 55% 1021 hPa - - - -
1788144038 12.22° C 54% 1020.9 hPa - - - -
1788143137 12.78° C 54% 1020.7 hPa - - - -
1788142238 13.33° C 50% 1020.2 hPa - - - -
1788141337 13.33° C 51% 1020.4 hPa - - - -
1788140437 13.33° C 51% 1020.4 hPa - - - -
1788139537 13.33° C 51% 1020.4 hPa - - - -
1788138637 13.89° C 50% 1020.2 hPa - - - -
1788137737 13.33° C 51% 1020.3 hPa - - - -
1788136837 13.33° C 50% 1020 hPa - - - -
1788136454 13.89° C 49% 1019.9 hPa - - - -
1788135938 13.89° C 49% 1019.9 hPa - - - -
1788135037 14.44° C 49% 1019.7 hPa - - - -
1788134137 14.44° C 49% 1019.8 hPa - - - -
1788133237 15° C 48% 1019.6 hPa - - - -
1788132337 15° C 47% 1019.6 hPa - - - -
1788131437 15.56° C 46% 1019.3 hPa - - - -
1788130537 15.56° C 45% 1019.1 hPa - - - -
1788129638 16.11° C 43% 1019 hPa - - - -
1788128902 16.11° C 43% 1018.8 hPa - - - -
1788128738 16.11° C 43% 1018.8 hPa - - - -
1788127837 16.67° C 42% 1018.5 hPa - - - -
1788126937 17.22° C 41% 1018.3 hPa - - - -
1788126038 17.22° C 40% 1018.1 hPa - - - -

* Rain since midnight (hover to see other rain measurements)
** Current wind speed in m/s (hover to see current wind gust speed)